sensor_id;sensor_type;location;lat;lon;timestamp;pressure;altitude;pressure_sealevel;temperature;humidity
61026;BME280;46911;32.650;-16.902;2023-03-04T00:00:47;101794.81;;;16.67;100.00
61026;BME280;46911;32.650;-16.902;2023-03-04T00:02:52;101819.56;;;16.72;100.00
61026;BME280;46911;32.650;-16.902;2023-03-04T00:04:55;101793.50;;;16.48;100.00
61026;BME280;46911;32.650;-16.902;2023-03-04T00:06:56;101814.50;;;16.56;100.00
61026;BME280;46911;32.650;-16.902;2023-03-04T00:08:57;101814.03;;;16.62;100.00
61026;BME280;46911;32.650;-16.902;2023-03-04T00:11:05;101813.63;;;16.55;100.00
61026;BME280;46911;32.650;-16.902;2023-03-04T00:13:11;101794.84;;;16.43;100.00
61026;BME280;46911;32.650;-16.902;2023-03-04T00:15:14;101812.72;;;16.44;100.00
61026;BME280;46911;32.650;-16.902;2023-03-04T00:17:15;101819.34;;;16.51;100.00
61026;BME280;46911;32.650;-16.902;2023-03-04T00:19:16;101791.41;;;16.40;100.00
61026;BME280;46911;32.650;-16.902;2023-03-04T00:21:20;101814.50;;;16.56;100.00
61026;BME280;46911;32.650;-16.902;2023-03-04T00:23:21;101781.91;;;16.48;100.00
61026;BME280;46911;32.650;-16.902;2023-03-04T00:25:22;101787.03;;;16.51;100.00
61026;BME280;46911;32.650;-16.902;2023-03-04T00:27:22;101797.97;;;16.61;100.00
61026;BME280;46911;32.650;-16.902;2023-03-04T00:29:23;101786.06;;;16.52;100.00
61026;BME280;46911;32.650;-16.902;2023-03-04T00:31:27;101795.19;;;16.62;100.00
61026;BME280;46911;32.650;-16.902;2023-03-04T00:33:30;101786.06;;;16.52;100.00
61026;BME280;46911;32.650;-16.902;2023-03-04T00:35:31;101794.38;;;16.49;100.00
61026;BME280;46911;32.650;-16.902;2023-03-04T00:37:32;101783.16;;;16.31;100.00
61026;BME280;46911;32.650;-16.902;2023-03-04T00:39:36;101800.69;;;16.36;100.00
61026;BME280;46911;32.650;-16.902;2023-03-04T00:41:40;101800.69;;;16.36;100.00
61026;BME280;46911;32.650;-16.902;2023-03-04T00:43:41;101784.25;;;16.28;100.00
61026;BME280;46911;32.650;-16.902;2023-03-04T00:45:42;101794.44;;;16.36;100.00
61026;BME280;46911;32.650;-16.902;2023-03-04T00:47:45;101782.53;;;16.27;100.00
61026;BME280;46911;32.650;-16.902;2023-03-04T00:49:46;101775.44;;;16.26;100.00
61026;BME280;46911;32.650;-16.902;2023-03-04T00:51:54;101787.97;;;16.38;100.00
61026;BME280;46911;32.650;-16.902;2023-03-04T00:53:55;101765.66;;;16.25;100.00
61026;BME280;46911;32.650;-16.902;2023-03-04T00:55:56;101772.66;;;16.39;100.00
61026;BME280;46911;32.650;-16.902;2023-03-04T00:57:57;101756.50;;;16.28;100.00
61026;BME280;46911;32.650;-16.902;2023-03-04T00:59:58;101769.34;;;16.35;100.00
61026;BME280;46911;32.650;-16.902;2023-03-04T01:02:01;101747.78;;;16.24;100.00
61026;BME280;46911;32.650;-16.902;2023-03-04T01:04:06;101764.56;;;16.28;100.00
61026;BME280;46911;32.650;-16.902;2023-03-04T01:06:08;101754.53;;;16.30;100.00
61026;BME280;46911;32.650;-16.902;2023-03-04T01:08:12;101750.75;;;16.32;100.00
61026;BME280;46911;32.650;-16.902;2023-03-04T01:10:15;101743.41;;;16.34;100.00
61026;BME280;46911;32.650;-16.902;2023-03-04T01:12:16;101737.03;;;16.35;100.00
61026;BME280;46911;32.650;-16.902;2023-03-04T01:14:23;101715.22;;;16.27;100.00
61026;BME280;46911;32.650;-16.902;2023-03-04T01:16:24;101697.59;;;16.23;100.00
61026;BME280;46911;32.650;-16.902;2023-03-04T01:18:31;101704.69;;;16.24;100.00
61026;BME280;46911;32.650;-16.902;2023-03-04T01:20:32;101706.19;;;16.28;100.00
61026;BME280;46911;32.650;-16.902;2023-03-04T01:22:36;101689.75;;;16.20;100.00
61026;BME280;46911;32.650;-16.902;2023-03-04T01:24:39;101706.69;;;16.33;100.00
61026;BME280;46911;32.650;-16.902;2023-03-04T01:26:40;101685.50;;;16.29;100.00
61026;BME280;46911;32.650;-16.902;2023-03-04T01:28:47;101685.72;;;16.26;100.00
61026;BME280;46911;32.650;-16.902;2023-03-04T01:30:48;101702.78;;;16.49;100.00
61026;BME280;46911;32.650;-16.902;2023-03-04T01:32:53;101701.94;;;16.48;100.00
61026;BME280;46911;32.650;-16.902;2023-03-04T01:34:56;101701.69;;;16.51;100.00
61026;BME280;46911;32.650;-16.902;2023-03-04T01:37:00;101698.91;;;16.53;100.00
61026;BME280;46911;32.650;-16.902;2023-03-04T01:39:03;101686.13;;;16.32;100.00
61026;BME280;46911;32.650;-16.902;2023-03-04T01:41:05;101677.53;;;16.27;100.00
61026;BME280;46911;32.650;-16.902;2023-03-04T01:43:15;101686.75;;;16.36;100.00
61026;BME280;46911;32.650;-16.902;2023-03-04T01:45:22;101692.59;;;16.30;100.00
61026;BME280;46911;32.650;-16.902;2023-03-04T01:47:30;101687.78;;;16.22;100.00
61026;BME280;46911;32.650;-16.902;2023-03-04T01:49:32;101704.47;;;16.27;100.00
61026;BME280;46911;32.650;-16.902;2023-03-04T01:51:36;101710.22;;;16.34;100.00
61026;BME280;46911;32.650;-16.902;2023-03-04T01:53:45;101710.00;;;16.37;100.00
61026;BME280;46911;32.650;-16.902;2023-03-04T01:55:47;101692.84;;;16.27;100.00
61026;BME280;46911;32.650;-16.902;2023-03-04T01:57:49;101688.19;;;16.29;100.00
61026;BME280;46911;32.650;-16.902;2023-03-04T02:02:27;101685.91;;;16.47;100.00
61026;BME280;46911;32.650;-16.902;2023-03-04T02:04:32;101683.22;;;16.47;100.00
61026;BME280;46911;32.650;-16.902;2023-03-04T02:06:36;101688.59;;;16.47;100.00
61026;BME280;46911;32.650;-16.902;2023-03-04T02:08:42;101667.16;;;16.34;100.00
61026;BME280;46911;32.650;-16.902;2023-03-04T02:10:43;101673.91;;;16.39;100.00
61026;BME280;46911;32.650;-16.902;2023-03-04T02:12:47;101678.09;;;16.44;100.00
61026;BME280;46911;32.650;-16.902;2023-03-04T02:14:51;101655.28;;;16.36;100.00
61026;BME280;46911;32.650;-16.902;2023-03-04T02:16:52;101657.50;;;16.43;100.00
61026;BME280;46911;32.650;-16.902;2023-03-04T02:18:54;101654.81;;;16.43;100.00
61026;BME280;46911;32.650;-16.902;2023-03-04T02:21:07;101676.63;;;16.51;100.00
61026;BME280;46911;32.650;-16.902;2023-03-04T02:26:02;101666.22;;;16.46;100.00
61026;BME280;46911;32.650;-16.902;2023-03-04T02:28:02;101665.34;;;16.46;100.00
61026;BME280;46911;32.650;-16.902;2023-03-04T02:30:10;101641.31;;;16.31;100.00
61026;BME280;46911;32.650;-16.902;2023-03-04T02:32:12;101637.41;;;16.24;100.00
61026;BME280;46911;32.650;-16.902;2023-03-04T02:36:19;101633.22;;;16.20;100.00
61026;BME280;46911;32.650;-16.902;2023-03-04T02:38:20;101651.38;;;16.29;100.00
61026;BME280;46911;32.650;-16.902;2023-03-04T02:40:25;101635.81;;;16.21;100.00
61026;BME280;46911;32.650;-16.902;2023-03-04T02:42:27;101647.91;;;16.27;100.00
61026;BME280;46911;32.650;-16.902;2023-03-04T02:44:33;101636.16;;;16.17;100.00
61026;BME280;46911;32.650;-16.902;2023-03-04T02:46:37;101627.34;;;16.15;100.00
61026;BME280;46911;32.650;-16.902;2023-03-04T02:48:38;101639.34;;;16.22;100.00
61026;BME280;46911;32.650;-16.902;2023-03-04T02:50:47;101637.53;;;16.22;100.00
61026;BME280;46911;32.650;-16.902;2023-03-04T02:52:51;101628.56;;;16.22;100.00
61026;BME280;46911;32.650;-16.902;2023-03-04T02:54:53;101627.72;;;16.21;100.00
61026;BME280;46911;32.650;-16.902;2023-03-04T02:57:00;101627.84;;;16.20;100.00
61026;BME280;46911;32.650;-16.902;2023-03-04T02:59:07;101621.50;;;16.21;100.00
61026;BME280;46911;32.650;-16.902;2023-03-04T03:01:08;101613.63;;;16.18;100.00
61026;BME280;46911;32.650;-16.902;2023-03-04T03:03:09;101600.53;;;16.13;100.00
61026;BME280;46911;32.650;-16.902;2023-03-04T03:05:13;101622.97;;;16.25;100.00
61026;BME280;46911;32.650;-16.902;2023-03-04T03:07:14;101625.28;;;16.30;100.00
61026;BME280;46911;32.650;-16.902;2023-03-04T03:09:18;101592.09;;;16.18;100.00
61026;BME280;46911;32.650;-16.902;2023-03-04T03:11:22;101599.34;;;16.17;100.00
61026;BME280;46911;32.650;-16.902;2023-03-04T03:13:28;101595.53;;;16.20;100.00
61026;BME280;46911;32.650;-16.902;2023-03-04T03:15:29;101616.38;;;16.29;100.00
61026;BME280;46911;32.650;-16.902;2023-03-04T03:17:30;101626.88;;;16.32;100.00
61026;BME280;46911;32.650;-16.902;2023-03-04T03:19:34;101598.50;;;16.17;100.00
61026;BME280;46911;32.650;-16.902;2023-03-04T03:21:37;101600.09;;;16.19;100.00
61026;BME280;46911;32.650;-16.902;2023-03-04T03:23:41;101591.50;;;16.14;100.00
61026;BME280;46911;32.650;-16.902;2023-03-04T03:25:48;101606.94;;;16.23;100.00
61026;BME280;46911;32.650;-16.902;2023-03-04T03:27:48;101584.03;;;16.06;100.00
61026;BME280;46911;32.650;-16.902;2023-03-04T03:29:50;101598.09;;;16.10;100.00
61026;BME280;46911;32.650;-16.902;2023-03-04T03:31:51;101595.25;;;16.00;100.00
61026;BME280;46911;32.650;-16.902;2023-03-04T03:33:56;101575.25;;;15.80;100.00
61026;BME280;46911;32.650;-16.902;2023-03-04T03:36:01;101583.16;;;15.70;100.00
61026;BME280;46911;32.650;-16.902;2023-03-04T03:38:02;101611.28;;;15.78;100.00
61026;BME280;46911;32.650;-16.902;2023-03-04T03:40:09;101606.38;;;15.71;100.00
61026;BME280;46911;32.650;-16.902;2023-03-04T03:42:10;101612.03;;;15.80;100.00
61026;BME280;46911;32.650;-16.902;2023-03-04T03:44:11;101586.81;;;15.69;100.00
61026;BME280;46911;32.650;-16.902;2023-03-04T03:46:12;101595.69;;;15.83;100.00
61026;BME280;46911;32.650;-16.902;2023-03-04T03:48:13;101602.94;;;15.94;100.00
61026;BME280;46911;32.650;-16.902;2023-03-04T03:50:22;101575.63;;;15.87;100.00
61026;BME280;46911;32.650;-16.902;2023-03-04T03:52:25;101576.78;;;15.96;100.00
61026;BME280;46911;32.650;-16.902;2023-03-04T03:54:26;101583.25;;;16.04;100.00
61026;BME280;46911;32.650;-16.902;2023-03-04T03:56:27;101563.44;;;15.94;100.00
61026;BME280;46911;32.650;-16.902;2023-03-04T03:58:34;101563.19;;;15.97;100.00
61026;BME280;46911;32.650;-16.902;2023-03-04T04:00:35;101560.25;;;16.00;100.00
61026;BME280;46911;32.650;-16.902;2023-03-04T04:02:35;101553.06;;;16.01;100.00
61026;BME280;46911;32.650;-16.902;2023-03-04T04:04:39;101546.22;;;15.97;100.00
61026;BME280;46911;32.650;-16.902;2023-03-04T04:06:40;101547.06;;;15.97;100.00
61026;BME280;46911;32.650;-16.902;2023-03-04T04:08:41;101561.28;;;16.11;100.00
61026;BME280;46911;32.650;-16.902;2023-03-04T04:10:44;101570.31;;;16.10;100.00
61026;BME280;46911;32.650;-16.902;2023-03-04T04:12:46;101565.91;;;16.09;100.00
61026;BME280;46911;32.650;-16.902;2023-03-04T04:14:50;101555.13;;;16.09;100.00
61026;BME280;46911;32.650;-16.902;2023-03-04T04:16:54;101561.41;;;16.09;100.00
61026;BME280;46911;32.650;-16.902;2023-03-04T04:18:57;101566.66;;;16.11;100.00
61026;BME280;46911;32.650;-16.902;2023-03-04T04:20:58;101562.25;;;16.10;100.00
61026;BME280;46911;32.650;-16.902;2023-03-04T04:23:01;101546.81;;;16.00;100.00
61026;BME280;46911;32.650;-16.902;2023-03-04T04:25:03;101568.75;;;16.18;100.00
61026;BME280;46911;32.650;-16.902;2023-03-04T04:27:04;101550.50;;;16.11;100.00
61026;BME280;46911;32.650;-16.902;2023-03-04T04:29:09;101559.47;;;16.22;100.00
61026;BME280;46911;32.650;-16.902;2023-03-04T04:31:12;101538.78;;;16.12;100.00
61026;BME280;46911;32.650;-16.902;2023-03-04T04:33:14;101526.16;;;16.12;100.00
61026;BME280;46911;32.650;-16.902;2023-03-04T04:35:21;101542.94;;;16.16;100.00
61026;BME280;46911;32.650;-16.902;2023-03-04T04:37:24;101549.66;;;16.21;100.00
61026;BME280;46911;32.650;-16.902;2023-03-04T04:39:27;101525.44;;;16.10;100.00
61026;BME280;46911;32.650;-16.902;2023-03-04T04:41:33;101541.59;;;16.21;100.00
61026;BME280;46911;32.650;-16.902;2023-03-04T04:43:38;101530.69;;;16.12;100.00
61026;BME280;46911;32.650;-16.902;2023-03-04T04:45:39;101530.69;;;16.12;100.00
61026;BME280;46911;32.650;-16.902;2023-03-04T04:47:42;101537.53;;;16.16;100.00
61026;BME280;46911;32.650;-16.902;2023-03-04T04:49:45;101541.47;;;16.12;100.00
61026;BME280;46911;32.650;-16.902;2023-03-04T04:51:48;101529.06;;;15.86;100.00
61026;BME280;46911;32.650;-16.902;2023-03-04T04:53:49;101539.19;;;15.83;100.00
61026;BME280;46911;32.650;-16.902;2023-03-04T04:55:52;101522.97;;;15.60;100.00
61026;BME280;46911;32.650;-16.902;2023-03-04T04:57:53;101516.06;;;15.45;100.00
61026;BME280;46911;32.650;-16.902;2023-03-04T04:59:56;101516.88;;;15.34;100.00
61026;BME280;46911;32.650;-16.902;2023-03-04T05:01:57;101526.38;;;15.27;100.00
61026;BME280;46911;32.650;-16.902;2023-03-04T05:04:00;101527.31;;;15.14;100.00
61026;BME280;46911;32.650;-16.902;2023-03-04T05:06:10;101521.53;;;15.07;100.00
61026;BME280;46911;32.650;-16.902;2023-03-04T05:08:11;101520.47;;;14.97;100.00
61026;BME280;46911;32.650;-16.902;2023-03-04T05:10:12;101519.28;;;15.01;100.00
61026;BME280;46911;32.650;-16.902;2023-03-04T05:12:14;101507.50;;;14.91;100.00
61026;BME280;46911;32.650;-16.902;2023-03-04T05:14:15;101497.66;;;14.79;100.00
61026;BME280;46911;32.650;-16.902;2023-03-04T05:16:20;101497.25;;;14.72;100.00
61026;BME280;46911;32.650;-16.902;2023-03-04T05:18:22;101484.47;;;14.63;100.00
61026;BME280;46911;32.650;-16.902;2023-03-04T05:20:26;101505.22;;;14.61;100.00
61026;BME280;46911;32.650;-16.902;2023-03-04T05:22:27;101502.31;;;14.51;100.00
61026;BME280;46911;32.650;-16.902;2023-03-04T05:24:28;101539.13;;;14.62;100.00
61026;BME280;46911;32.650;-16.902;2023-03-04T05:26:31;101516.72;;;14.50;100.00
61026;BME280;46911;32.650;-16.902;2023-03-04T05:28:33;101531.41;;;14.57;100.00
61026;BME280;46911;32.650;-16.902;2023-03-04T05:30:34;101530.03;;;14.51;100.00
61026;BME280;46911;32.650;-16.902;2023-03-04T05:32:35;101519.84;;;14.44;100.00
61026;BME280;46911;32.650;-16.902;2023-03-04T05:34:36;101526.94;;;14.45;100.00
61026;BME280;46911;32.650;-16.902;2023-03-04T05:36:39;101525.44;;;14.40;100.00
61026;BME280;46911;32.650;-16.902;2023-03-04T05:38:40;101523.84;;;14.38;100.00
61026;BME280;46911;32.650;-16.902;2023-03-04T05:40:44;101534.47;;;14.39;100.00
61026;BME280;46911;32.650;-16.902;2023-03-04T05:42:45;101516.31;;;14.30;100.00
61026;BME280;46911;32.650;-16.902;2023-03-04T05:44:48;101543.16;;;14.43;100.00
61026;BME280;46911;32.650;-16.902;2023-03-04T05:46:53;101537.13;;;14.39;100.00
61026;BME280;46911;32.650;-16.902;2023-03-04T05:49:00;101525.97;;;14.33;100.00
61026;BME280;46911;32.650;-16.902;2023-03-04T05:51:03;101513.94;;;14.26;100.00
61026;BME280;46911;32.650;-16.902;2023-03-04T05:53:04;101536.50;;;14.36;100.00
61026;BME280;46911;32.650;-16.902;2023-03-04T05:55:08;101536.06;;;14.29;100.00
61026;BME280;46911;32.650;-16.902;2023-03-04T05:57:09;101511.72;;;14.19;100.00
61026;BME280;46911;32.650;-16.902;2023-03-04T05:59:13;101536.06;;;14.29;100.00
61026;BME280;46911;32.650;-16.902;2023-03-04T06:01:19;101545.19;;;14.27;100.00
61026;BME280;46911;32.650;-16.902;2023-03-04T06:03:23;101541.22;;;14.19;100.00
61026;BME280;46911;32.650;-16.902;2023-03-04T06:05:24;101538.13;;;14.13;100.00
61026;BME280;46911;32.650;-16.902;2023-03-04T06:07:25;101533.72;;;14.12;100.00
61026;BME280;46911;32.650;-16.902;2023-03-04T06:09:26;101545.09;;;14.15;100.00
61026;BME280;46911;32.650;-16.902;2023-03-04T06:11:27;101538.34;;;14.10;100.00
61026;BME280;46911;32.650;-16.902;2023-03-04T06:13:27;101529.53;;;14.07;100.00
61026;BME280;46911;32.650;-16.902;2023-03-04T06:15:28;101556.25;;;14.22;100.00
61026;BME280;46911;32.650;-16.902;2023-03-04T06:17:34;101510.84;;;13.93;100.00
61026;BME280;46911;32.650;-16.902;2023-03-04T06:19:36;101541.22;;;14.06;100.00
61026;BME280;46911;32.650;-16.902;2023-03-04T06:21:40;101564.63;;;14.17;100.00
61026;BME280;46911;32.650;-16.902;2023-03-04T06:23:47;101565.50;;;14.18;100.00
61026;BME280;46911;32.650;-16.902;2023-03-04T06:25:51;101539.59;;;14.04;100.00
61026;BME280;46911;32.650;-16.902;2023-03-04T06:27:53;101564.72;;;14.16;100.00
61026;BME280;46911;32.650;-16.902;2023-03-04T06:29:53;101543.25;;;14.03;100.00
61026;BME280;46911;32.650;-16.902;2023-03-04T06:31:54;101551.94;;;14.06;100.00
61026;BME280;46911;32.650;-16.902;2023-03-04T06:33:58;101564.84;;;14.14;100.00
61026;BME280;46911;32.650;-16.902;2023-03-04T06:35:59;101558.19;;;14.07;100.00
61026;BME280;46911;32.650;-16.902;2023-03-04T06:38:02;101547.03;;;14.00;100.00
61026;BME280;46911;32.650;-16.902;2023-03-04T06:40:06;101551.41;;;14.01;100.00
61026;BME280;46911;32.650;-16.902;2023-03-04T06:42:07;101558.81;;;14.11;100.00
61026;BME280;46911;32.650;-16.902;2023-03-04T06:44:08;101559.25;;;14.04;100.00
61026;BME280;46911;32.650;-16.902;2023-03-04T06:46:12;101580.94;;;14.14;100.00
61026;BME280;46911;32.650;-16.902;2023-03-04T06:48:13;101554.97;;;14.02;100.00
61026;BME280;46911;32.650;-16.902;2023-03-04T06:50:13;101556.78;;;14.01;100.00
61026;BME280;46911;32.650;-16.902;2023-03-04T06:52:17;101581.78;;;14.15;100.00
61026;BME280;46911;32.650;-16.902;2023-03-04T06:54:22;101575.13;;;14.07;100.00
61026;BME280;46911;32.650;-16.902;2023-03-04T06:56:28;101558.38;;;14.04;100.00
61026;BME280;46911;32.650;-16.902;2023-03-04T06:58:29;101583.28;;;14.06;100.00
61026;BME280;46911;32.650;-16.902;2023-03-04T07:00:30;101568.28;;;14.03;100.00
61026;BME280;46911;32.650;-16.902;2023-03-04T07:02:31;101597.25;;;14.11;100.00
61026;BME280;46911;32.650;-16.902;2023-03-04T07:04:38;101598.22;;;14.10;100.00
61026;BME280;46911;32.650;-16.902;2023-03-04T07:06:39;101583.81;;;13.98;100.00
61026;BME280;46911;32.650;-16.902;2023-03-04T07:08:40;101587.44;;;13.97;100.00
61026;BME280;46911;32.650;-16.902;2023-03-04T07:10:43;101601.31;;;14.04;100.00
61026;BME280;46911;32.650;-16.902;2023-03-04T07:12:46;101587.56;;;13.96;100.00
61026;BME280;46911;32.650;-16.902;2023-03-04T07:14:50;101576.28;;;13.90;100.00
61026;BME280;46911;32.650;-16.902;2023-03-04T07:16:54;101608.72;;;14.00;100.00
61026;BME280;46911;32.650;-16.902;2023-03-04T07:18:54;101603.25;;;14.02;100.00
61026;BME280;46911;32.650;-16.902;2023-03-04T07:20:55;101608.63;;;14.02;100.00
61026;BME280;46911;32.650;-16.902;2023-03-04T07:22:58;101589.41;;;13.95;100.00
61026;BME280;46911;32.650;-16.902;2023-03-04T07:25:03;101597.34;;;13.97;100.00
61026;BME280;46911;32.650;-16.902;2023-03-04T07:27:07;101618.16;;;14.06;100.00
61026;BME280;46911;32.650;-16.902;2023-03-04T07:29:11;101613.75;;;14.05;100.00
61026;BME280;46911;32.650;-16.902;2023-03-04T07:33:20;101606.44;;;13.94;100.00
61026;BME280;46911;32.650;-16.902;2023-03-04T07:35:21;101622.59;;;14.07;100.00
61026;BME280;46911;32.650;-16.902;2023-03-04T07:37:22;101607.75;;;14.01;100.00
61026;BME280;46911;32.650;-16.902;2023-03-04T07:39:25;101613.88;;;14.03;100.00
61026;BME280;46911;32.650;-16.902;2023-03-04T07:41:28;101627.63;;;14.12;100.00
61026;BME280;46911;32.650;-16.902;2023-03-04T07:43:32;101633.53;;;14.17;100.00
61026;BME280;46911;32.650;-16.902;2023-03-04T07:45:33;101619.69;;;14.10;100.00
61026;BME280;46911;32.650;-16.902;2023-03-04T07:47:34;101621.06;;;14.16;100.00
61026;BME280;46911;32.650;-16.902;2023-03-04T07:49:35;101640.19;;;14.37;100.00
61026;BME280;46911;32.650;-16.902;2023-03-04T07:51:41;101620.56;;;14.36;100.00
61026;BME280;46911;32.650;-16.902;2023-03-04T07:53:45;101618.09;;;14.46;100.00
61026;BME280;46911;32.650;-16.902;2023-03-04T07:55:47;101628.53;;;14.64;100.00
61026;BME280;46911;32.650;-16.902;2023-03-04T07:57:48;101614.25;;;14.63;100.00
61026;BME280;46911;32.650;-16.902;2023-03-04T07:59:49;101637.97;;;14.82;100.00
61026;BME280;46911;32.650;-16.902;2023-03-04T08:01:50;101634.50;;;14.93;100.00
61026;BME280;46911;32.650;-16.902;2023-03-04T08:03:54;101616.91;;;14.89;100.00
61026;BME280;46911;32.650;-16.902;2023-03-04T08:05:58;101609.56;;;14.91;100.00
61026;BME280;46911;32.650;-16.902;2023-03-04T08:08:02;101640.28;;;15.13;97.96
61026;BME280;46911;32.650;-16.902;2023-03-04T08:10:03;101632.22;;;15.13;96.86
61026;BME280;46911;32.650;-16.902;2023-03-04T08:12:05;101644.63;;;15.27;96.45
61026;BME280;46911;32.650;-16.902;2023-03-04T08:14:10;101619.19;;;15.19;96.59
61026;BME280;46911;32.650;-16.902;2023-03-04T08:16:18;101647.91;;;15.43;96.85
61026;BME280;46911;32.650;-16.902;2023-03-04T08:18:22;101649.06;;;15.52;95.07
61026;BME280;46911;32.650;-16.902;2023-03-04T08:20:26;101641.84;;;15.52;93.63
61026;BME280;46911;32.650;-16.902;2023-03-04T08:22:30;101645.13;;;15.69;91.19
61026;BME280;46911;32.650;-16.902;2023-03-04T08:24:31;101655.09;;;15.80;90.63
61026;BME280;46911;32.650;-16.902;2023-03-04T08:26:36;101632.50;;;15.82;90.07
61026;BME280;46911;32.650;-16.902;2023-03-04T08:28:46;101636.44;;;15.89;89.94
61026;BME280;46911;32.650;-16.902;2023-03-04T08:30:52;101646.88;;;16.05;89.47
61026;BME280;46911;32.650;-16.902;2023-03-04T08:32:53;101662.00;;;16.19;88.02
61026;BME280;46911;32.650;-16.902;2023-03-04T08:34:54;101662.97;;;16.18;88.87
61026;BME280;46911;32.650;-16.902;2023-03-04T08:36:56;101660.88;;;16.22;87.94
61026;BME280;46911;32.650;-16.902;2023-03-04T08:38:57;101671.94;;;16.30;87.73
61026;BME280;46911;32.650;-16.902;2023-03-04T08:40:58;101649.53;;;16.30;88.15
61026;BME280;46911;32.650;-16.902;2023-03-04T08:42:59;101671.84;;;16.54;87.39
61026;BME280;46911;32.650;-16.902;2023-03-04T08:45:03;101673.97;;;16.62;88.09
61026;BME280;46911;32.650;-16.902;2023-03-04T08:47:09;101664.03;;;16.74;88.02
61026;BME280;46911;32.650;-16.902;2023-03-04T08:49:14;101680.97;;;17.10;87.66
61026;BME280;46911;32.650;-16.902;2023-03-04T08:51:15;101673.34;;;17.38;87.82
61026;BME280;46911;32.650;-16.902;2023-03-04T08:53:19;101669.00;;;17.58;86.84
61026;BME280;46911;32.650;-16.902;2023-03-04T08:55:23;101683.75;;;17.86;85.14
61026;BME280;46911;32.650;-16.902;2023-03-04T08:57:24;101661.81;;;17.80;84.07
61026;BME280;46911;32.650;-16.902;2023-03-04T08:59:27;101682.13;;;18.06;83.57
61026;BME280;46911;32.650;-16.902;2023-03-04T09:01:31;101677.09;;;18.02;86.51
61026;BME280;46911;32.650;-16.902;2023-03-04T09:03:35;101668.16;;;18.01;86.51
61026;BME280;46911;32.650;-16.902;2023-03-04T09:05:39;101675.41;;;18.22;86.12
61026;BME280;46911;32.650;-16.902;2023-03-04T09:07:42;101686.16;;;18.33;86.76
61026;BME280;46911;32.650;-16.902;2023-03-04T09:09:43;101666.38;;;18.33;86.03
61026;BME280;46911;32.650;-16.902;2023-03-04T09:11:44;101675.13;;;18.46;86.62
61026;BME280;46911;32.650;-16.902;2023-03-04T09:13:45;101668.09;;;18.55;85.20
61026;BME280;46911;32.650;-16.902;2023-03-04T09:15:47;101676.84;;;18.68;85.68
61026;BME280;46911;32.650;-16.902;2023-03-04T09:17:49;101675.84;;;18.69;84.33
61026;BME280;46911;32.650;-16.902;2023-03-04T09:19:52;101662.59;;;18.66;83.70
61026;BME280;46911;32.650;-16.902;2023-03-04T09:21:58;101673.84;;;18.93;82.57
61026;BME280;46911;32.650;-16.902;2023-03-04T09:24:01;101675.63;;;19.13;82.04
61026;BME280;46911;32.650;-16.902;2023-03-04T09:26:13;101658.44;;;19.24;81.33
61026;BME280;46911;32.650;-16.902;2023-03-04T09:28:18;101665.91;;;19.51;80.93
61026;BME280;46911;32.650;-16.902;2023-03-04T09:30:19;101637.88;;;19.62;78.24
61026;BME280;46911;32.650;-16.902;2023-03-04T09:32:20;101673.09;;;19.82;78.10
61026;BME280;46911;32.650;-16.902;2023-03-04T09:34:23;101677.09;;;19.87;76.88
61026;BME280;46911;32.650;-16.902;2023-03-04T09:36:29;101655.94;;;19.42;78.67
61026;BME280;46911;32.650;-16.902;2023-03-04T09:38:37;101666.22;;;19.58;77.55
61026;BME280;46911;32.650;-16.902;2023-03-04T09:40:47;101672.81;;;19.85;77.37
61026;BME280;46911;32.650;-16.902;2023-03-04T09:42:59;101661.84;;;20.06;75.60
61026;BME280;46911;32.650;-16.902;2023-03-04T09:45:05;101655.97;;;20.11;75.38
61026;BME280;46911;32.650;-16.902;2023-03-04T09:47:19;101647.16;;;20.09;75.24
61026;BME280;46911;32.650;-16.902;2023-03-04T09:49:24;101675.75;;;20.70;73.15
61026;BME280;46911;32.650;-16.902;2023-03-04T09:51:50;101663.34;;;21.23;70.81
61026;BME280;46911;32.650;-16.902;2023-03-04T09:54:05;101669.63;;;21.51;69.71
61026;BME280;46911;32.650;-16.902;2023-03-04T09:56:11;101677.13;;;20.64;71.97
61026;BME280;46911;32.650;-16.902;2023-03-04T09:58:41;101672.66;;;20.35;73.66
61026;BME280;46911;32.650;-16.902;2023-03-04T10:00:50;101646.56;;;20.15;74.13
61026;BME280;46911;32.650;-16.902;2023-03-04T10:05:16;101663.69;;;20.15;75.55
61026;BME280;46911;32.650;-16.902;2023-03-04T10:07:23;101671.94;;;20.04;75.82
61026;BME280;46911;32.650;-16.902;2023-03-04T10:09:31;101678.91;;;19.77;77.69
61026;BME280;46911;32.650;-16.902;2023-03-04T10:12:05;101680.03;;;19.55;79.45
61026;BME280;46911;32.650;-16.902;2023-03-04T10:16:27;101659.97;;;20.26;73.70
61026;BME280;46911;32.650;-16.902;2023-03-04T10:18:36;101656.81;;;20.40;72.95
61026;BME280;46911;32.650;-16.902;2023-03-04T10:23:04;101678.06;;;21.20;71.03
61026;BME280;46911;32.650;-16.902;2023-03-04T10:27:20;101665.44;;;22.11;68.35
61026;BME280;46911;32.650;-16.902;2023-03-04T10:29:23;101674.81;;;22.53;66.80
61026;BME280;46911;32.650;-16.902;2023-03-04T10:31:36;101648.59;;;22.44;65.89
61026;BME280;46911;32.650;-16.902;2023-03-04T10:33:39;101674.91;;;23.38;62.34
61026;BME280;46911;32.650;-16.902;2023-03-04T10:35:44;101663.34;;;23.02;62.14
61026;BME280;46911;32.650;-16.902;2023-03-04T10:37:50;101659.88;;;22.57;65.32
61026;BME280;46911;32.650;-16.902;2023-03-04T10:39:54;101666.38;;;22.64;67.13
61026;BME280;46911;32.650;-16.902;2023-03-04T10:42:22;101651.94;;;22.64;66.87